createdAt,value
2018-05-26T04:01:38.083Z,99.90
2018-05-26T04:04:05.626Z,99.90
2018-05-26T04:06:33.193Z,99.90
2018-05-26T04:09:00.731Z,99.90
2018-05-26T04:11:28.306Z,99.90
2018-05-26T04:13:55.852Z,99.90
2018-05-26T04:16:23.426Z,99.90
2018-05-26T04:18:50.965Z,99.90
2018-05-26T04:21:18.530Z,99.90
2018-05-26T04:23:46.077Z,99.90
2018-05-26T04:26:13.641Z,99.90
2018-05-26T04:28:41.188Z,99.90
2018-05-26T04:31:09.486Z,99.90
2018-05-26T04:33:37.061Z,99.90
2018-05-26T04:36:04.597Z,99.90
2018-05-26T04:38:32.162Z,99.90
2018-05-26T04:40:59.705Z,99.90
2018-05-26T04:43:28.054Z,99.90
2018-05-26T04:45:55.611Z,99.90
2018-05-26T04:48:23.173Z,99.90
2018-05-26T04:50:50.713Z,99.90
2018-05-26T04:53:18.278Z,99.90
2018-05-26T04:55:45.824Z,99.90
2018-05-26T04:58:13.410Z,99.90
2018-05-26T05:00:40.956Z,99.90
2018-05-26T05:03:08.526Z,99.90
2018-05-26T05:05:36.115Z,99.90
2018-05-26T05:08:03.657Z,99.90
2018-05-26T05:10:31.190Z,99.90
2018-05-26T05:12:58.757Z,99.90
2018-05-26T05:15:26.311Z,99.90
2018-05-26T05:17:53.874Z,99.90
2018-05-26T05:20:21.433Z,99.90
2018-05-26T05:22:49.006Z,99.90
2018-05-26T05:25:16.534Z,99.90
2018-05-26T05:27:44.090Z,98.90
2018-05-26T05:30:11.624Z,97.20
2018-05-26T05:32:39.982Z,95.90
2018-05-26T05:35:07.521Z,95.70
2018-05-26T05:37:35.112Z,95.20
2018-05-26T05:40:02.641Z,94.90
2018-05-26T05:42:30.205Z,94.70
2018-05-26T05:44:57.755Z,95.30
2018-05-26T05:47:25.321Z,95.30
2018-05-26T05:49:52.860Z,94.20
2018-05-26T05:52:20.420Z,92.10
2018-05-26T05:54:47.953Z,90.30
2018-05-26T05:57:16.259Z,82.30
2018-05-26T05:59:43.830Z,82.30
2018-05-26T06:02:11.367Z,79.60
2018-05-26T06:04:38.929Z,82.70
2018-05-26T06:07:06.480Z,83.50
2018-05-26T06:09:34.813Z,86.80
2018-05-26T06:12:02.346Z,86.80
2018-05-26T06:14:29.913Z,89.50
2018-05-26T06:16:57.458Z,90.80
2018-05-26T06:19:25.049Z,92.40
2018-05-26T06:21:52.602Z,93.60
2018-05-26T06:24:20.196Z,94.30
2018-05-26T06:26:47.736Z,94.40
2018-05-26T06:29:15.302Z,94.80
2018-05-26T06:31:42.898Z,94.30
2018-05-26T06:34:10.427Z,94.70
2018-05-26T06:36:37.966Z,94.50
2018-05-26T06:39:05.523Z,94.10
2018-05-26T06:41:33.058Z,93.10
2018-05-26T06:44:00.614Z,92.90
2018-05-26T06:46:28.154Z,92.50
2018-05-26T06:48:56.493Z,93.20
2018-05-26T06:51:24.059Z,93.20
2018-05-26T06:53:51.622Z,93.60
2018-05-26T06:56:19.159Z,93.50
2018-05-26T06:58:46.738Z,92.90
2018-05-26T07:01:14.291Z,93.00
2018-05-26T07:03:41.885Z,92.70
2018-05-26T07:06:10.199Z,92.50
2018-05-26T07:08:37.754Z,92.50
2018-05-26T07:11:05.314Z,92.50
2018-05-26T07:13:32.882Z,92.30
2018-05-26T07:16:00.451Z,92.30
2018-05-26T07:18:28.030Z,92.50
2018-05-26T07:20:55.585Z,92.30
2018-05-26T07:23:23.138Z,92.40
2018-05-26T07:25:50.711Z,92.30
2018-05-26T07:28:18.241Z,92.10
2018-05-26T07:30:45.799Z,91.90
2018-05-26T07:33:13.337Z,91.70
2018-05-26T07:35:41.666Z,91.90
2018-05-26T07:38:09.213Z,91.90
2018-05-26T07:40:36.787Z,92.60
2018-05-26T07:43:04.326Z,91.80
2018-05-26T07:45:31.905Z,92.20
2018-05-26T07:47:59.462Z,91.80
2018-05-26T07:50:27.038Z,91.90
2018-05-26T07:52:54.586Z,92.20
2018-05-26T07:55:22.151Z,91.80
2018-05-26T07:57:49.714Z,91.40
2018-05-26T08:00:17.275Z,91.40
2018-05-26T08:02:44.850Z,91.20
2018-05-26T08:05:12.431Z,91.60
2018-05-26T08:07:39.974Z,90.60
2018-05-26T08:10:07.591Z,90.30
2018-05-26T08:12:35.129Z,90.60
2018-05-26T08:15:03.454Z,90.50
2018-05-26T08:17:31.027Z,90.50
2018-05-26T08:19:58.598Z,91.20
2018-05-26T08:22:26.149Z,90.30
2018-05-26T08:24:53.728Z,90.00
2018-05-26T08:27:22.226Z,90.10
2018-05-26T08:29:49.773Z,90.70
2018-05-26T08:32:17.311Z,90.40
2018-05-26T08:34:44.883Z,90.10
2018-05-26T08:37:12.426Z,88.40
2018-05-26T08:39:39.986Z,89.20
2018-05-26T08:42:07.513Z,89.10
2018-05-26T08:44:35.124Z,89.50
2018-05-26T08:47:02.651Z,90.30
2018-05-26T08:49:30.227Z,87.60
2018-05-26T08:51:57.766Z,88.60
2018-05-26T08:54:25.321Z,86.70
2018-05-26T08:56:52.883Z,86.60
2018-05-26T08:59:20.429Z,85.80
2018-05-26T09:01:47.990Z,84.10
2018-05-26T09:04:15.554Z,87.50
2018-05-26T09:06:43.145Z,87.50
2018-05-26T09:09:10.686Z,87.00
2018-05-26T09:11:38.266Z,86.30
2018-05-26T09:14:05.801Z,86.40
2018-05-26T09:16:33.368Z,87.20
2018-05-26T09:19:01.505Z,87.50
2018-05-26T09:21:29.854Z,85.50
2018-05-26T09:23:57.394Z,85.50
2018-05-26T09:26:24.968Z,85.90
2018-05-26T09:28:52.505Z,87.10
2018-05-26T09:31:20.113Z,85.80
2018-05-26T09:33:47.625Z,87.10
2018-05-26T09:36:15.194Z,85.90
2018-05-26T09:38:42.736Z,85.10
2018-05-26T09:41:10.307Z,85.90
2018-05-26T09:43:37.908Z,83.90
2018-05-26T09:46:05.455Z,84.40
2018-05-26T09:48:32.990Z,83.80
2018-05-26T09:51:00.566Z,82.70
2018-05-26T09:53:28.103Z,83.10
2018-05-26T09:55:55.697Z,82.40
2018-05-26T09:58:23.227Z,78.20
2018-05-26T10:00:50.791Z,82.60
2018-05-26T10:03:18.349Z,81.30
2018-05-26T10:05:45.978Z,81.90
2018-05-26T10:08:14.274Z,82.80
2018-05-26T10:10:41.860Z,82.90
2018-05-26T10:13:09.411Z,83.40
2018-05-26T10:15:36.982Z,81.70
2018-05-26T10:18:04.558Z,79.10
2018-05-26T10:20:32.100Z,78.80
2018-05-26T10:22:59.666Z,80.90
2018-05-26T10:25:27.204Z,80.50
2018-05-26T10:27:54.761Z,77.90
2018-05-26T10:30:22.301Z,74.20
2018-05-26T10:32:50.634Z,67.40
2018-05-26T10:35:18.179Z,67.40
2018-05-26T10:37:45.755Z,68.20
2018-05-26T10:40:13.292Z,67.30
2018-05-26T10:42:40.851Z,65.60
2018-05-26T10:45:08.399Z,62.40
2018-05-26T10:47:35.972Z,61.40
2018-05-26T10:50:03.549Z,60.70
2018-05-26T10:52:31.119Z,62.10
2018-05-26T10:54:58.656Z,64.50
2018-05-26T10:57:26.214Z,71.20
2018-05-26T10:59:53.751Z,67.90
2018-05-26T11:02:21.321Z,62.40
2018-05-26T11:04:48.899Z,65.60
2018-05-26T11:07:16.452Z,63.30
2018-05-26T11:09:44.025Z,58.50
2018-05-26T11:12:11.576Z,59.40
2018-05-26T11:14:39.154Z,61.10
2018-05-26T11:17:06.745Z,64.30
2018-05-26T11:19:34.303Z,63.80
2018-05-26T11:22:01.856Z,64.70
2018-05-26T11:24:29.510Z,66.30
2018-05-26T11:26:57.751Z,64.10
2018-05-26T11:29:25.330Z,64.10
2018-05-26T11:31:52.868Z,65.70
2018-05-26T11:34:20.443Z,60.50
2018-05-26T11:36:47.976Z,53.50
2018-05-26T11:39:16.319Z,56.10
2018-05-26T11:41:43.882Z,56.10
2018-05-26T11:44:11.442Z,52.40
2018-05-26T11:46:38.985Z,51.70
2018-05-26T11:49:06.555Z,51.00
2018-05-26T11:51:35.616Z,49.90
2018-05-26T11:54:03.183Z,49.90
2018-05-26T11:56:30.819Z,47.40
2018-05-26T11:58:58.382Z,48.50
2018-05-26T12:01:25.950Z,48.30
2018-05-26T12:03:53.504Z,47.80
2018-05-26T12:06:21.071Z,47.40
2018-05-26T12:08:48.615Z,48.00
2018-05-26T12:11:16.185Z,48.00
2018-05-26T12:13:43.733Z,47.50
2018-05-26T12:16:12.064Z,48.30
2018-05-26T12:18:39.611Z,48.30
2018-05-26T12:21:07.180Z,46.90
2018-05-26T12:23:34.725Z,48.50
2018-05-26T12:26:02.290Z,46.70
2018-05-26T12:28:29.840Z,47.00
2018-05-26T12:30:57.408Z,46.40
2018-05-26T12:33:24.950Z,47.70
2018-05-26T12:35:52.526Z,48.00
2018-05-26T12:38:20.070Z,48.30
2018-05-26T12:40:47.635Z,48.00
2018-05-26T12:43:15.179Z,48.00
2018-05-26T12:45:43.513Z,46.70
2018-05-26T12:48:11.051Z,46.70
2018-05-26T12:50:38.583Z,47.90
2018-05-26T12:53:06.141Z,47.40
2018-05-26T12:55:33.683Z,48.10
2018-05-26T12:58:02.030Z,46.20
2018-05-26T13:00:29.569Z,46.20
2018-05-26T13:02:57.133Z,44.60
2018-05-26T13:05:24.665Z,46.10
2018-05-26T13:07:52.231Z,47.30
2018-05-26T13:10:19.774Z,47.70
2018-05-26T13:12:48.102Z,47.30
2018-05-26T13:15:15.645Z,47.30
2018-05-26T13:17:43.217Z,50.20
2018-05-26T13:20:10.754Z,50.90
2018-05-26T13:22:38.328Z,52.10
2018-05-26T13:25:05.862Z,52.50
2018-05-26T13:27:33.418Z,53.20
2018-05-26T13:30:01.725Z,52.60
2018-05-26T13:32:29.293Z,52.60
2018-05-26T13:34:56.944Z,50.60
2018-05-26T13:37:24.502Z,49.80
2018-05-26T13:39:52.046Z,51.50
2018-05-26T13:42:19.625Z,52.90
2018-05-26T13:44:47.170Z,53.20
2018-05-26T13:47:14.755Z,53.60
2018-05-26T13:49:42.299Z,53.10
2018-05-26T13:52:09.911Z,52.80
2018-05-26T13:54:37.511Z,52.40
2018-05-26T13:57:05.025Z,52.40
2018-05-26T13:59:32.587Z,51.00
2018-05-26T14:02:00.130Z,50.90
2018-05-26T14:04:27.689Z,50.30
2018-05-26T14:06:55.234Z,52.30
2018-05-26T14:09:22.794Z,52.50
2018-05-26T14:11:50.341Z,52.50
2018-05-26T14:14:17.896Z,53.60
2018-05-26T14:16:45.429Z,51.80
2018-05-26T14:19:13.750Z,51.80
2018-05-26T14:21:41.299Z,51.20
2018-05-26T14:24:08.871Z,51.00
2018-05-26T14:26:36.425Z,52.10
2018-05-26T14:29:04.010Z,53.10
2018-05-26T14:31:31.558Z,53.20
2018-05-26T14:33:59.143Z,52.80
2018-05-26T14:36:26.750Z,52.00
2018-05-26T14:38:54.430Z,53.30
2018-05-26T14:41:21.978Z,51.90
2018-05-26T14:43:49.552Z,52.80
2018-05-26T14:46:17.097Z,54.20
2018-05-26T14:48:44.662Z,53.80
2018-05-26T14:51:12.227Z,53.60
2018-05-26T14:53:39.766Z,53.70
2018-05-26T14:56:08.098Z,53.20
2018-05-26T14:58:35.652Z,53.20
2018-05-26T15:01:03.219Z,52.90
2018-05-26T15:03:30.758Z,51.00
2018-05-26T15:05:58.337Z,52.50
2018-05-26T15:08:25.895Z,52.00
2018-05-26T15:10:53.457Z,51.90
2018-05-26T15:13:21.004Z,53.70
2018-05-26T15:15:48.572Z,51.40
2018-05-26T15:18:16.105Z,52.20
2018-05-26T15:20:43.669Z,51.70
2018-05-26T15:23:11.208Z,51.90
2018-05-26T15:25:39.551Z,51.70
2018-05-26T15:28:07.092Z,51.70
2018-05-26T15:30:34.651Z,51.80
2018-05-26T15:33:02.211Z,52.60
2018-05-26T15:35:29.746Z,51.70
2018-05-26T15:37:57.325Z,52.40
2018-05-26T15:40:24.857Z,51.70
2018-05-26T15:42:53.221Z,51.90
2018-05-26T15:45:20.734Z,51.90
2018-05-26T15:47:48.302Z,51.50
2018-05-26T15:50:15.841Z,51.10
2018-05-26T15:52:43.399Z,51.90
2018-05-26T15:55:10.938Z,51.30
2018-05-26T15:57:39.258Z,52.10
2018-05-26T16:00:07.238Z,52.10
2018-05-26T16:02:34.803Z,51.80
2018-05-26T16:05:02.350Z,52.50
2018-05-26T16:07:29.938Z,51.80
2018-05-26T16:09:57.502Z,51.40
2018-05-26T16:12:25.074Z,51.90
2018-05-26T16:14:53.377Z,52.50
2018-05-26T16:17:20.935Z,52.40
2018-05-26T16:19:48.475Z,52.50
2018-05-26T16:22:16.806Z,52.20
2018-05-26T16:24:44.348Z,52.20
2018-05-26T16:27:11.898Z,52.80
2018-05-26T16:29:39.470Z,53.00
2018-05-26T16:32:07.000Z,53.60
2018-05-26T16:34:35.329Z,52.30
2018-05-26T16:37:02.874Z,52.40
2018-05-26T16:39:30.441Z,53.20
2018-05-26T16:41:57.976Z,52.80
2018-05-26T16:44:25.552Z,51.70
2018-05-26T16:46:53.097Z,52.50
2018-05-26T16:49:20.670Z,53.30
2018-05-26T16:51:48.247Z,52.40
2018-05-26T16:54:15.815Z,52.50
2018-05-26T16:56:43.355Z,52.70
2018-05-26T16:59:10.931Z,52.60
2018-05-26T17:01:38.474Z,52.10
2018-05-26T17:04:06.041Z,52.30
2018-05-26T17:06:33.573Z,52.70
2018-05-26T17:09:01.156Z,53.10
2018-05-26T17:11:28.706Z,53.50
2018-05-26T17:13:56.279Z,53.30
2018-05-26T17:16:23.819Z,53.60
2018-05-26T17:18:51.390Z,53.80
2018-05-26T17:21:18.933Z,54.60
2018-05-26T17:23:46.469Z,54.00
2018-05-26T17:26:14.047Z,54.60
2018-05-26T17:28:42.342Z,55.20
2018-05-26T17:31:09.906Z,55.20
2018-05-26T17:33:37.449Z,55.20
2018-05-26T17:36:05.778Z,55.30
2018-05-26T17:38:33.327Z,55.30
2018-05-26T17:41:00.898Z,56.10
2018-05-26T17:43:28.453Z,56.80
2018-05-26T17:45:56.036Z,56.00
2018-05-26T17:48:23.579Z,55.90
2018-05-26T17:50:51.148Z,56.20
2018-05-26T17:53:18.689Z,55.90
2018-05-26T17:55:46.255Z,56.20
2018-05-26T17:58:13.793Z,55.80
2018-05-26T18:00:41.372Z,56.30
2018-05-26T18:03:08.924Z,55.70
2018-05-26T18:05:36.505Z,56.20
2018-05-26T18:08:04.048Z,57.20
2018-05-26T18:10:31.614Z,57.60
2018-05-26T18:12:59.922Z,57.50
2018-05-26T18:15:27.487Z,57.50
2018-05-26T18:17:55.015Z,57.40
2018-05-26T18:20:23.449Z,58.10
2018-05-26T18:22:50.995Z,58.10
2018-05-26T18:25:19.333Z,59.00
2018-05-26T18:27:46.878Z,59.00
2018-05-26T18:30:14.459Z,60.90
2018-05-26T18:32:42.003Z,60.50
2018-05-26T18:35:09.576Z,60.30
2018-05-26T18:37:37.135Z,62.70
2018-05-26T18:40:04.682Z,63.70
2018-05-26T18:42:32.252Z,72.30
2018-05-26T18:44:59.796Z,72.50
2018-05-26T18:47:27.369Z,78.10
2018-05-26T18:49:54.908Z,82.50
2018-05-26T18:52:22.486Z,77.30
2018-05-26T18:54:50.017Z,80.80
2018-05-26T18:57:17.577Z,80.90
2018-05-26T18:59:45.126Z,83.80
